createdAt,value
2019-03-06T00:00:46.494Z,8.40
2019-03-06T00:03:15.915Z,8.10
2019-03-06T00:05:48.503Z,7.60
2019-03-06T00:08:17.763Z,6.60
2019-03-06T00:10:47.149Z,6.57
2019-03-06T00:13:18.051Z,6.70
2019-03-06T00:15:48.714Z,8.33
2019-03-06T00:18:18.042Z,10.57
2019-03-06T00:20:47.414Z,8.87
2019-03-06T00:23:17.150Z,8.50
2019-03-06T00:25:46.452Z,10.60
2019-03-06T00:28:15.880Z,10.13
2019-03-06T00:30:45.162Z,10.47
2019-03-06T00:33:14.529Z,10.53
2019-03-06T00:35:49.401Z,11.43
2019-03-06T00:38:18.784Z,10.80
2019-03-06T00:41:00.371Z,11.57
2019-03-06T00:43:30.652Z,12.67
2019-03-06T00:46:01.166Z,10.90
2019-03-06T00:48:31.037Z,14.10
2019-03-06T00:51:00.354Z,13.23
2019-03-06T00:53:30.034Z,14.83
2019-03-06T00:55:59.437Z,14.17
2019-03-06T00:58:28.821Z,13.40
2019-03-06T01:00:58.348Z,13.23
2019-03-06T01:03:27.775Z,14.80
2019-03-06T01:05:57.094Z,14.70
2019-03-06T01:08:27.149Z,13.10
2019-03-06T01:10:57.239Z,15.70
2019-03-06T01:13:26.623Z,14.37
2019-03-06T01:15:55.916Z,14.37
2019-03-06T01:18:26.349Z,15.27
2019-03-06T01:20:55.641Z,17.73
2019-03-06T01:23:24.933Z,17.03
2019-03-06T01:25:54.923Z,16.90
2019-03-06T01:28:24.223Z,17.87
2019-03-06T01:30:53.426Z,16.83
2019-03-06T01:33:28.507Z,16.63
2019-03-06T01:36:18.382Z,18.00
2019-03-06T01:39:00.903Z,17.57
2019-03-06T01:41:53.271Z,19.70
2019-03-06T01:44:27.189Z,17.57
2019-03-06T01:46:56.465Z,18.00
2019-03-06T01:49:25.802Z,19.17
2019-03-06T01:51:55.111Z,20.13
2019-03-06T01:54:24.465Z,19.50
2019-03-06T01:56:54.426Z,20.27
2019-03-06T01:59:23.693Z,20.10
2019-03-06T02:01:52.966Z,20.23
2019-03-06T02:04:23.414Z,20.13
2019-03-06T02:06:53.189Z,18.77
2019-03-06T02:09:22.735Z,20.23
2019-03-06T02:11:52.454Z,19.33
2019-03-06T02:14:22.835Z,19.90
2019-03-06T02:16:53.420Z,20.90
2019-03-06T02:19:23.013Z,20.87
2019-03-06T02:21:53.728Z,21.47
2019-03-06T02:24:23.232Z,21.30
2019-03-06T02:26:52.599Z,22.47
2019-03-06T02:29:21.870Z,21.07
2019-03-06T02:31:51.200Z,22.57
2019-03-06T02:34:20.895Z,22.00
2019-03-06T02:36:50.350Z,23.60
2019-03-06T02:39:22.299Z,25.73
2019-03-06T02:41:51.557Z,32.60
2019-03-06T02:44:20.874Z,55.13
2019-03-06T02:46:50.559Z,31.73
2019-03-06T02:49:20.028Z,45.57
2019-03-06T02:51:49.270Z,33.80
2019-03-06T02:54:18.635Z,37.17
2019-03-06T02:56:48.005Z,49.87
2019-03-06T02:59:35.376Z,34.50
2019-03-06T03:02:22.330Z,35.07
2019-03-06T03:05:13.515Z,43.27
2019-03-06T03:07:44.159Z,41.23
2019-03-06T03:10:13.642Z,68.53
2019-03-06T03:12:43.101Z,51.93
2019-03-06T03:15:12.431Z,37.20
2019-03-06T03:17:41.732Z,47.63
2019-03-06T03:20:11.120Z,47.27
2019-03-06T03:22:40.735Z,43.53
2019-03-06T03:25:13.387Z,42.97
2019-03-06T03:27:45.492Z,37.97
2019-03-06T03:30:19.546Z,36.77
2019-03-06T03:32:51.165Z,53.80
2019-03-06T03:35:22.143Z,70.63
2019-03-06T03:37:52.642Z,34.20
2019-03-06T03:40:23.152Z,48.97
2019-03-06T03:42:53.794Z,24.00
2019-03-06T03:45:24.270Z,46.90
2019-03-06T03:47:56.696Z,43.37
2019-03-06T03:50:26.204Z,61.30
2019-03-06T03:52:57.395Z,43.70
2019-03-06T03:55:29.065Z,70.07
2019-03-06T03:57:58.374Z,41.93
2019-03-06T04:00:27.709Z,51.43
2019-03-06T04:02:57.131Z,56.20
2019-03-06T04:05:26.762Z,51.40
2019-03-06T04:07:56.441Z,40.67
2019-03-06T04:10:26.212Z,53.33
2019-03-06T04:12:55.868Z,77.57
2019-03-06T04:15:28.609Z,40.97
2019-03-06T04:18:00.176Z,73.63
2019-03-06T04:20:30.098Z,49.07
2019-03-06T04:22:59.770Z,62.93
2019-03-06T04:25:30.578Z,37.57
2019-03-06T04:28:00.096Z,64.43
2019-03-06T04:30:30.105Z,51.83
2019-03-06T04:32:59.531Z,35.07
2019-03-06T04:35:28.844Z,46.33
2019-03-06T04:37:58.152Z,26.90
2019-03-06T04:40:27.440Z,25.23
2019-03-06T04:42:56.713Z,33.93
2019-03-06T04:45:28.003Z,33.07
2019-03-06T04:47:57.429Z,33.40
2019-03-06T04:50:27.158Z,25.77
2019-03-06T04:52:56.438Z,31.87
2019-03-06T04:55:25.641Z,32.73
2019-03-06T04:57:54.945Z,27.93
2019-03-06T05:00:25.223Z,31.73
2019-03-06T05:02:55.263Z,28.83
2019-03-06T05:05:24.905Z,33.10
2019-03-06T05:07:54.666Z,27.27
2019-03-06T05:10:24.297Z,24.00
2019-03-06T05:12:54.001Z,28.03
2019-03-06T05:15:23.302Z,28.13
2019-03-06T05:18:14.528Z,30.07
2019-03-06T05:20:44.933Z,23.83
2019-03-06T05:23:14.693Z,24.83
2019-03-06T05:25:44.227Z,25.63
2019-03-06T05:28:13.572Z,26.83
2019-03-06T05:30:42.857Z,27.23
2019-03-06T05:33:13.084Z,29.90
2019-03-06T05:36:18.215Z,24.17
2019-03-06T05:38:51.864Z,33.53
2019-03-06T05:41:21.139Z,24.07
2019-03-06T05:43:50.484Z,24.73
2019-03-06T05:46:20.109Z,23.33
2019-03-06T05:48:49.748Z,20.60
2019-03-06T05:51:24.205Z,19.07
2019-03-06T05:53:59.519Z,19.67
2019-03-06T05:56:32.050Z,21.70
2019-03-06T05:59:04.105Z,22.87
2019-03-06T06:01:36.634Z,25.07
2019-03-06T06:04:07.730Z,17.60
2019-03-06T06:06:41.863Z,18.87
2019-03-06T06:09:11.219Z,31.30
2019-03-06T06:11:40.750Z,15.60
2019-03-06T06:14:10.282Z,17.63
2019-03-06T06:16:39.952Z,40.03
2019-03-06T06:19:09.275Z,17.10
2019-03-06T06:21:57.505Z,28.63
2019-03-06T06:24:29.251Z,22.03
2019-03-06T06:27:00.372Z,15.40
2019-03-06T06:29:29.911Z,30.40
2019-03-06T06:32:24.571Z,29.47
2019-03-06T06:35:29.599Z,24.80
2019-03-06T06:38:32.344Z,16.63
2019-03-06T06:41:16.380Z,17.47
2019-03-06T06:44:04.493Z,17.23
2019-03-06T06:46:35.485Z,15.83
2019-03-06T06:49:27.693Z,17.93
2019-03-06T06:52:22.857Z,21.50
2019-03-06T06:55:14.485Z,19.30
2019-03-06T06:58:20.121Z,14.17
2019-03-06T07:01:57.475Z,19.40
2019-03-06T07:05:19.030Z,21.20
2019-03-06T07:08:13.149Z,14.67
2019-03-06T07:10:52.188Z,17.27
2019-03-06T07:13:37.599Z,15.33
2019-03-06T07:16:26.378Z,16.97
2019-03-06T07:19:21.538Z,15.57
2019-03-06T07:22:10.326Z,15.30
2019-03-06T07:24:56.041Z,21.83
2019-03-06T07:27:50.313Z,14.13
2019-03-06T07:30:47.827Z,15.13
2019-03-06T07:33:42.207Z,14.03
2019-03-06T07:36:30.689Z,13.57
2019-03-06T07:39:04.551Z,13.67
2019-03-06T07:41:55.735Z,14.23
2019-03-06T07:44:35.596Z,15.40
2019-03-06T07:47:22.802Z,14.17
2019-03-06T07:50:18.339Z,14.63
2019-03-06T07:53:43.150Z,15.53
2019-03-06T07:56:18.909Z,16.67
2019-03-06T07:58:56.011Z,16.50
2019-03-06T08:01:27.727Z,15.70
2019-03-06T08:04:24.234Z,15.77
2019-03-06T08:07:01.795Z,15.83
2019-03-06T08:09:31.791Z,15.83
2019-03-06T08:12:21.096Z,16.60
2019-03-06T08:15:03.179Z,16.53
2019-03-06T08:17:42.981Z,15.70
2019-03-06T08:20:26.261Z,14.80
2019-03-06T08:23:29.147Z,14.60
2019-03-06T08:25:58.750Z,14.50
2019-03-06T08:28:31.580Z,15.00
2019-03-06T08:31:24.374Z,14.83
2019-03-06T08:33:56.988Z,14.70
2019-03-06T08:36:32.643Z,14.70
2019-03-06T08:39:04.287Z,11.97
2019-03-06T08:41:48.561Z,11.17
2019-03-06T08:44:18.471Z,11.47
2019-03-06T08:47:10.838Z,10.87
2019-03-06T08:50:24.479Z,10.30
2019-03-06T08:53:12.605Z,9.87
2019-03-06T08:55:47.059Z,9.27
2019-03-06T08:58:31.241Z,8.37
2019-03-06T09:01:34.975Z,7.70
2019-03-06T09:04:22.509Z,7.87
2019-03-06T09:06:57.644Z,6.97
2019-03-06T09:09:50.863Z,6.27
2019-03-06T09:12:39.407Z,5.80
2019-03-06T09:15:28.805Z,5.43
2019-03-06T09:18:15.366Z,5.07
2019-03-06T09:21:07.073Z,3.90
2019-03-06T09:23:59.190Z,4.30
2019-03-06T09:26:51.551Z,3.97
2019-03-06T09:29:45.904Z,4.00
2019-03-06T09:32:34.069Z,3.70
2019-03-06T09:35:24.954Z,3.70
2019-03-06T09:38:11.232Z,3.20
2019-03-06T09:41:07.278Z,3.10
2019-03-06T09:43:48.051Z,2.93
2019-03-06T09:46:35.626Z,2.73
2019-03-06T09:49:22.210Z,2.80
2019-03-06T09:52:10.243Z,3.00
2019-03-06T09:54:47.167Z,2.57
2019-03-06T09:57:33.803Z,2.77
2019-03-06T10:00:24.974Z,2.80
2019-03-06T10:03:28.244Z,3.07
2019-03-06T10:06:24.993Z,2.83
2019-03-06T10:09:04.710Z,2.70
2019-03-06T10:11:51.646Z,2.67
2019-03-06T10:14:31.726Z,2.80
2019-03-06T10:17:06.756Z,2.17
2019-03-06T10:19:43.107Z,2.97
2019-03-06T10:22:12.190Z,2.83
2019-03-06T10:24:42.029Z,2.40
2019-03-06T10:27:11.302Z,2.83
2019-03-06T10:29:40.348Z,2.23
2019-03-06T10:32:09.619Z,2.30
2019-03-06T10:34:39.702Z,2.47
2019-03-06T10:37:09.028Z,2.30
2019-03-06T10:39:38.365Z,3.07
2019-03-06T10:42:07.563Z,3.10
2019-03-06T10:44:36.846Z,2.53
2019-03-06T10:47:05.891Z,2.47
2019-03-06T10:49:35.650Z,2.37
2019-03-06T10:52:05.513Z,2.50
2019-03-06T10:54:37.906Z,1.73
2019-03-06T10:57:05.898Z,2.30
2019-03-06T10:59:35.216Z,2.00
2019-03-06T11:02:06.771Z,2.10
2019-03-06T11:04:46.543Z,2.17
2019-03-06T11:07:15.811Z,1.97
2019-03-06T11:09:45.006Z,1.83
2019-03-06T11:12:14.366Z,1.67
2019-03-06T11:14:44.643Z,1.73
2019-03-06T11:17:14.222Z,1.67
2019-03-06T11:19:44.772Z,2.60
2019-03-06T11:22:19.389Z,2.33
2019-03-06T11:24:48.650Z,2.83
2019-03-06T11:27:17.987Z,2.37
2019-03-06T11:29:47.122Z,2.37
2019-03-06T11:32:16.726Z,2.10
2019-03-06T11:34:48.701Z,1.90
2019-03-06T11:37:18.401Z,1.90
2019-03-06T11:39:47.674Z,2.47
2019-03-06T11:42:17.157Z,2.10
2019-03-06T11:44:46.498Z,1.93
2019-03-06T11:47:15.579Z,2.57
2019-03-06T11:49:44.583Z,1.90
2019-03-06T11:52:13.739Z,2.13
2019-03-06T11:54:42.997Z,2.70
2019-03-06T11:57:12.368Z,2.63
2019-03-06T11:59:42.660Z,2.50
2019-03-06T12:02:11.814Z,2.07
2019-03-06T12:04:40.926Z,2.57
2019-03-06T12:07:10.124Z,2.57
2019-03-06T12:09:41.374Z,2.17
2019-03-06T12:12:10.777Z,2.10
2019-03-06T12:14:40.064Z,2.23
2019-03-06T12:17:09.098Z,2.60
2019-03-06T12:19:40.997Z,2.03
2019-03-06T12:22:10.331Z,1.90
2019-03-06T12:24:41.310Z,1.53
2019-03-06T12:27:10.453Z,2.00
2019-03-06T12:29:39.549Z,1.80
2019-03-06T12:32:09.136Z,1.77
2019-03-06T12:34:38.423Z,2.13
2019-03-06T12:37:07.742Z,1.50
2019-03-06T12:39:37.623Z,1.50
2019-03-06T12:42:14.025Z,1.80
2019-03-06T12:44:39.885Z,1.47
2019-03-06T12:47:10.985Z,1.07
2019-03-06T12:49:40.314Z,1.60
2019-03-06T12:52:09.534Z,1.23
2019-03-06T12:54:38.863Z,1.47
2019-03-06T12:57:09.573Z,1.20
2019-03-06T12:59:38.920Z,1.30
2019-03-06T13:02:14.490Z,1.07
2019-03-06T13:04:43.661Z,1.53
2019-03-06T13:07:14.011Z,1.57
2019-03-06T13:09:43.935Z,0.93
2019-03-06T13:12:14.073Z,1.50
2019-03-06T13:14:43.656Z,1.30
2019-03-06T13:17:12.853Z,1.07
2019-03-06T13:19:41.938Z,1.57
2019-03-06T13:22:12.313Z,1.40
2019-03-06T13:24:42.609Z,1.07
2019-03-06T13:27:12.122Z,0.93
2019-03-06T13:29:41.933Z,1.07
2019-03-06T13:32:12.043Z,1.10
2019-03-06T13:34:50.633Z,1.13
2019-03-06T13:37:16.432Z,1.10
2019-03-06T13:39:45.508Z,1.10
2019-03-06T13:42:52.554Z,0.90
2019-03-06T13:49:38.011Z,1.23
2019-03-06T14:00:48.701Z,1.40
2019-03-06T14:04:22.895Z,1.23
2019-03-06T14:07:56.015Z,1.27
2019-03-06T14:11:02.289Z,0.80
2019-03-06T14:14:27.416Z,1.00
2019-03-06T14:17:26.261Z,0.93
2019-03-06T14:20:30.831Z,1.07
2019-03-06T14:24:02.782Z,1.30
2019-03-06T14:27:03.719Z,1.40
2019-03-06T14:30:17.273Z,1.00
2019-03-06T14:33:39.246Z,0.97
2019-03-06T14:37:07.433Z,0.90
2019-03-06T14:44:16.297Z,0.93
2019-03-06T14:47:39.139Z,1.00
2019-03-06T14:50:40.539Z,1.00
2019-03-06T14:53:37.751Z,1.30
2019-03-06T14:56:17.378Z,0.80
2019-03-06T14:58:53.652Z,1.30
2019-03-06T15:01:29.034Z,0.80
2019-03-06T15:04:06.478Z,1.20
2019-03-06T15:06:43.628Z,0.83
2019-03-06T15:09:32.442Z,0.80
2019-03-06T15:12:08.969Z,1.03
2019-03-06T15:14:49.534Z,1.30
2019-03-06T15:17:25.069Z,0.73
2019-03-06T15:20:00.902Z,1.33
2019-03-06T15:22:41.208Z,1.30
2019-03-06T15:25:18.778Z,1.63
2019-03-06T15:27:54.550Z,1.20
2019-03-06T15:30:32.650Z,1.20
2019-03-06T15:33:05.171Z,1.10
2019-03-06T15:35:37.508Z,1.10
2019-03-06T15:38:12.851Z,1.20
2019-03-06T15:40:45.698Z,0.80
2019-03-06T15:43:21.404Z,1.17
2019-03-06T15:46:00.379Z,1.63
2019-03-06T15:48:36.594Z,1.40
2019-03-06T15:51:11.254Z,1.20
2019-03-06T15:53:47.010Z,1.20
2019-03-06T15:56:23.647Z,1.00
2019-03-06T15:59:14.937Z,1.00
2019-03-06T16:02:16.356Z,1.07
2019-03-06T16:05:16.020Z,1.13
2019-03-06T16:08:23.622Z,1.30
2019-03-06T16:11:14.151Z,0.80
2019-03-06T16:14:11.793Z,1.27
2019-03-06T16:16:57.354Z,1.10
2019-03-06T16:19:49.350Z,1.03
2019-03-06T16:22:24.556Z,1.30
2019-03-06T16:25:01.845Z,0.90
2019-03-06T16:27:36.906Z,1.50
2019-03-06T16:30:16.433Z,1.00
2019-03-06T16:32:52.794Z,0.90
2019-03-06T16:35:42.510Z,0.90
2019-03-06T16:38:23.962Z,1.50
2019-03-06T16:41:31.876Z,1.63
2019-03-06T16:44:36.737Z,0.90
2019-03-06T16:47:30.950Z,1.20
2019-03-06T16:50:24.756Z,1.20
2019-03-06T16:53:19.985Z,1.03
2019-03-06T16:56:26.534Z,1.77
2019-03-06T16:59:22.262Z,1.00
2019-03-06T17:02:11.678Z,0.80
2019-03-06T17:05:07.255Z,1.03
2019-03-06T17:08:08.640Z,0.90
2019-03-06T17:11:08.971Z,1.30
2019-03-06T17:13:58.568Z,0.97
2019-03-06T17:16:51.250Z,1.40
2019-03-06T17:19:45.835Z,1.17
2019-03-06T17:22:38.500Z,1.23
2019-03-06T17:25:30.884Z,1.20
2019-03-06T17:28:44.960Z,1.80
2019-03-06T17:32:09.284Z,1.10
2019-03-06T17:34:58.058Z,1.10
2019-03-06T17:37:56.449Z,1.73
2019-03-06T17:40:50.123Z,1.20
2019-03-06T17:43:49.475Z,1.50
2019-03-06T17:46:57.312Z,1.37
2019-03-06T17:49:43.149Z,1.30
2019-03-06T17:52:42.320Z,1.73
2019-03-06T17:55:39.908Z,1.73
2019-03-06T17:58:48.589Z,1.70
2019-03-06T18:01:52.922Z,1.90
2019-03-06T18:04:41.904Z,1.77
2019-03-06T18:07:28.426Z,2.03
2019-03-06T18:10:28.532Z,1.63
2019-03-06T18:13:29.870Z,2.20
2019-03-06T18:16:23.421Z,1.57
2019-03-06T18:19:25.318Z,1.87
2019-03-06T18:22:24.444Z,1.90
2019-03-06T18:25:14.349Z,1.83
2019-03-06T18:28:10.108Z,1.77
2019-03-06T18:30:52.478Z,1.60
2019-03-06T18:33:36.640Z,2.00
2019-03-06T18:36:26.363Z,1.43
2019-03-06T18:39:19.418Z,1.70
2019-03-06T18:42:05.968Z,1.40
2019-03-06T18:45:04.055Z,2.23
2019-03-06T18:47:48.479Z,2.07
2019-03-06T18:50:37.526Z,1.50
2019-03-06T18:53:27.068Z,1.80
2019-03-06T18:56:09.076Z,2.10
2019-03-06T18:58:50.537Z,1.80
2019-03-06T19:01:24.581Z,1.80
2019-03-06T19:03:57.491Z,1.90
2019-03-06T19:06:34.924Z,1.63
2019-03-06T19:09:12.341Z,1.80
2019-03-06T19:11:51.301Z,1.97
2019-03-06T19:14:32.252Z,1.33
2019-03-06T19:17:16.327Z,2.30
2019-03-06T19:20:05.544Z,1.83
2019-03-06T19:22:45.116Z,2.00
2019-03-06T19:25:45.033Z,2.20
2019-03-06T19:28:38.417Z,2.63
2019-03-06T19:31:33.526Z,2.23
2019-03-06T19:34:44.479Z,2.00
2019-03-06T19:37:52.186Z,2.53
2019-03-06T19:49:19.379Z,1.50
2019-03-06T19:52:26.022Z,2.37
2019-03-06T19:55:38.131Z,2.80
2019-03-06T19:58:55.216Z,2.63
2019-03-06T20:02:15.818Z,2.00
2019-03-06T20:05:20.631Z,3.40
2019-03-06T20:08:45.848Z,2.33
2019-03-06T20:12:08.759Z,2.30
2019-03-06T20:15:16.673Z,2.57
2019-03-06T20:18:25.443Z,3.17
2019-03-06T20:21:54.542Z,2.47
2019-03-06T20:25:19.380Z,2.77
2019-03-06T20:29:28.007Z,2.80
2019-03-06T20:33:10.326Z,2.77
2019-03-06T20:35:53.617Z,2.67
2019-03-06T20:38:32.219Z,2.60
2019-03-06T20:41:11.692Z,2.03
2019-03-06T20:43:48.918Z,2.40
2019-03-06T20:46:23.588Z,2.50
2019-03-06T20:49:00.794Z,1.83
2019-03-06T20:51:33.861Z,2.70
2019-03-06T20:54:08.020Z,2.50
2019-03-06T20:56:50.978Z,2.90
2019-03-06T20:59:44.606Z,1.93
2019-03-06T21:02:45.920Z,2.30
2019-03-06T21:05:53.897Z,2.20
2019-03-06T21:08:46.861Z,1.80
2019-03-06T21:11:33.063Z,2.27
2019-03-06T21:14:20.191Z,2.17
2019-03-06T21:17:12.515Z,3.57
2019-03-06T21:20:01.397Z,2.40
2019-03-06T21:22:47.754Z,1.70
2019-03-06T21:25:42.807Z,2.87
2019-03-06T21:28:32.819Z,1.67
2019-03-06T21:31:28.800Z,2.63
2019-03-06T21:34:24.886Z,2.47
2019-03-06T21:37:12.078Z,2.30
2019-03-06T21:40:02.408Z,2.03
2019-03-06T21:43:10.875Z,2.33
2019-03-06T21:46:09.974Z,1.53
2019-03-06T21:49:06.588Z,1.90
2019-03-06T21:52:03.756Z,2.17
2019-03-06T21:55:13.054Z,1.40
2019-03-06T21:58:06.723Z,1.57
2019-03-06T22:01:17.094Z,1.50
2019-03-06T22:04:37.924Z,1.63
2019-03-06T22:07:39.872Z,1.60
2019-03-06T22:10:46.779Z,1.87
2019-03-06T22:13:37.955Z,1.50
2019-03-06T22:16:36.318Z,1.60
2019-03-06T22:19:27.869Z,1.67
2019-03-06T22:22:39.423Z,1.90
2019-03-06T22:25:29.753Z,2.03
2019-03-06T22:28:23.003Z,2.00
2019-03-06T22:31:30.649Z,1.90
2019-03-06T22:34:25.381Z,1.70
2019-03-06T22:37:31.818Z,2.00
2019-03-06T22:41:11.645Z,1.70
2019-03-06T22:44:20.383Z,1.60
2019-03-06T22:47:49.615Z,1.90
2019-03-06T22:50:55.869Z,1.47
2019-03-06T22:54:26.037Z,1.90
2019-03-06T22:57:39.630Z,1.83
2019-03-06T23:01:14.912Z,1.40
2019-03-06T23:04:14.194Z,1.37
2019-03-06T23:13:04.826Z,1.97
2019-03-06T23:18:57.573Z,1.27
2019-03-06T23:22:37.076Z,2.03
2019-03-06T23:25:52.590Z,1.90
2019-03-06T23:41:01.455Z,1.67
